^^
Your Local Weather - Clay, NY Station Historical Data
Daily Summary for February 19, 2017 Units:  Metric    English   Both
« Previous Day
Next Day »
Daily Weekly Monthly Yearly Custom
  High: Low: Average:
Temperature: 11.8 °C 2.6 °C 7.2 °C
Dew Point: 2.6 °C -0.9 °C 1.2 °C
Humidity: 81% 48% 67%
Wind Speed: 11.3km/h 0km/h 3.7km/h
Wind Gust: 20.9km/h - -
Wind- - WNW
Pressure: 1017.2 hPa 1003.6 hPa -
Precipitation: 0 mm    
Historical Graphs
 
 
Tabular Data for February 19, 2017
Time Temperature Dew Point Pressure Wind Wind Speed Wind Gust Humidity Rainfall Rate (Hourly) solar
00:02 8.2 °C 2.4 °C 1003.6 hPa WNW 1.6 km/h 1.6 km/h 67% 0 mm 0 W/m2
00:08 8.2 °C 2.4 °C 1003.6 hPa West 1.6 km/h 8 km/h 67% 0 mm 0 W/m2
00:14 8.1 °C 2.5 °C 1003.6 hPa West 1.6 km/h 1.6 km/h 68% 0 mm 0 W/m2
00:20 7.9 °C 2.4 °C 1003.9 hPa West 1.6 km/h 1.6 km/h 68% 0 mm 0 W/m2
00:32 7.8 °C 2.4 °C 1003.9 hPa WNW 1.6 km/h 1.6 km/h 69% 0 mm 0 W/m2
00:38 7.7 °C 2.6 °C 1004.3 hPa WNW 1.6 km/h 3.2 km/h 70% 0 mm 0 W/m2
00:44 7.7 °C 2.6 °C 1004.3 hPa SW 1.6 km/h 3.2 km/h 70% 0 mm 0 W/m2
00:50 7.6 °C 2.4 °C 1004.3 hPa WSW 1.6 km/h 1.6 km/h 70% 0 mm 0 W/m2
00:56 7.4 °C 2.4 °C 1004.3 hPa WSW 1.6 km/h 3.2 km/h 71% 0 mm 0 W/m2
01:02 7.3 °C 2.4 °C 1004.3 hPa WSW 1.6 km/h 3.2 km/h 71% 0 mm 0 W/m2
01:08 7.3 °C 2.4 °C 1004.3 hPa WSW 1.6 km/h 3.2 km/h 71% 0 mm 0 W/m2
01:14 7.1 °C 2.4 °C 1004.3 hPa Calm   4.8 km/h 72% 0 mm 0 W/m2
01:20 6.9 °C 2.2 °C 1004.3 hPa West 1.6 km/h 1.6 km/h 72% 0 mm 0 W/m2
01:26 6.9 °C 2.4 °C 1004.3 hPa West 1.6 km/h 1.6 km/h 73% 0 mm 0 W/m2
01:32 6.8 °C 2.3 °C 1004.3 hPa West 1.6 km/h 3.2 km/h 73% 0 mm 0 W/m2
01:38 6.7 °C 2.2 °C 1004.3 hPa West 1.6 km/h 3.2 km/h 73% 0 mm 0 W/m2
01:44 6.8 °C 2.3 °C 1004.3 hPa WSW 1.6 km/h 6.4 km/h 73% 0 mm 0 W/m2
01:50 6.7 °C 2.4 °C 1004.3 hPa WSW 1.6 km/h 3.2 km/h 74% 0 mm 0 W/m2
01:56 6.7 °C 2.4 °C 1004.3 hPa WSW 3.2 km/h 3.2 km/h 74% 0 mm 0 W/m2
02:02 6.7 °C 2.4 °C 1004.3 hPa WSW 3.2 km/h 3.2 km/h 74% 0 mm 0 W/m2
02:08 6.7 °C 2.3 °C 1004.3 hPa West 1.6 km/h 3.2 km/h 74% 0 mm 0 W/m2
02:14 6.6 °C 2.2 °C 1004.3 hPa Calm   1.6 km/h 74% 0 mm 0 W/m2
02:20 6.4 °C 2.3 °C 1004.6 hPa Calm     75% 0 mm 0 W/m2
02:32 6.4 °C 2.3 °C 1004.6 hPa Calm     75% 0 mm 0 W/m2
02:38 6.4 °C 2.3 °C 1004.6 hPa Calm     75% 0 mm 0 W/m2
02:44 6.3 °C 2.3 °C 1004.6 hPa Calm     76% 0 mm 0 W/m2
02:50 6.3 °C 2.3 °C 1004.6 hPa Calm     76% 0 mm 0 W/m2
02:56 6.2 °C 2.2 °C 1004.6 hPa Calm   3.2 km/h 76% 0 mm 0 W/m2
03:03 6.1 °C 2.2 °C 1004.6 hPa Calm     76% 0 mm 0 W/m2
03:08 6.1 °C 2.2 °C 1004.6 hPa Calm     76% 0 mm 0 W/m2
03:14 6.2 °C 2.4 °C 1005 hPa WSW 1.6 km/h 1.6 km/h 77% 0 mm 0 W/m2
03:20 6.2 °C 2.2 °C 1005 hPa WSW 1.6 km/h 1.6 km/h 76% 0 mm 0 W/m2
03:26 6.1 °C 2.4 °C 1005 hPa Calm   4.8 km/h 77% 0 mm 0 W/m2
03:32 6.1 °C 2.3 °C 1005 hPa Calm   1.6 km/h 77% 0 mm 0 W/m2
03:38 6 °C 2.3 °C 1005 hPa Calm   3.2 km/h 77% 0 mm 0 W/m2
03:44 5.9 °C 2.2 °C 1005.3 hPa Calm     77% 0 mm 0 W/m2
03:50 5.8 °C 2.2 °C 1005.3 hPa Calm     78% 0 mm 0 W/m2
03:56 5.8 °C 2.2 °C 1005.3 hPa Calm   1.6 km/h 78% 0 mm 0 W/m2
04:02 5.8 °C 2.2 °C 1005.3 hPa Calm     78% 0 mm 0 W/m2
04:08 5.7 °C 2.2 °C 1005.3 hPa Calm     78% 0 mm 0 W/m2
04:14 5.7 °C 2.1 °C 1005.3 hPa Calm     78% 0 mm 0 W/m2
04:20 5.6 °C 2.2 °C 1005.6 hPa Calm   1.6 km/h 79% 0 mm 0 W/m2
04:26 5.6 °C 2.2 °C 1005.6 hPa Calm   1.6 km/h 79% 0 mm 0 W/m2
04:32 5.4 °C 2.1 °C 1005.6 hPa Calm     79% 0 mm 0 W/m2
04:38 5.3 °C 2 °C 1005.6 hPa Calm   3.2 km/h 79% 0 mm 0 W/m2
04:44 5.3 °C 2.1 °C 1005.6 hPa Calm   1.6 km/h 80% 0 mm 0 W/m2
04:50 5.2 °C 2.1 °C 1005.6 hPa Calm     80% 0 mm 0 W/m2
04:56 5.1 °C 1.9 °C 1005.6 hPa Calm     80% 0 mm 0 W/m2
05:02 5.1 °C 2.1 °C 1005.6 hPa Calm     81% 0 mm 0 W/m2
05:08 5.1 °C 2.1 °C 1005.6 hPa WSW 1.6 km/h 1.6 km/h 81% 0 mm 0 W/m2
05:14 5.2 °C 2 °C 1005.6 hPa WSW 1.6 km/h 1.6 km/h 80% 0 mm 0 W/m2
05:20 5.2 °C 2 °C 1005.6 hPa Calm     80% 0 mm 0 W/m2
05:26 5.1 °C 1.9 °C 1005.6 hPa Calm     80% 0 mm 0 W/m2
05:32 5.1 °C 1.9 °C 1005.6 hPa Calm   1.6 km/h 80% 0 mm 0 W/m2
05:38 5.2 °C 2 °C 1006 hPa Calm   1.6 km/h 80% 0 mm 0 W/m2
05:44 5.2 °C 2 °C 1006 hPa West 1.6 km/h 4.8 km/h 80% 0 mm 0 W/m2
05:50 5.3 °C 2.1 °C 1006 hPa WSW 1.6 km/h 3.2 km/h 80% 0 mm 0 W/m2
05:56 5.3 °C 2.2 °C 1006.3 hPa WSW 1.6 km/h 3.2 km/h 80% 0 mm 0 W/m2
06:02 5.4 °C 2.3 °C 1006.3 hPa West 1.6 km/h 1.6 km/h 80% 0 mm 0 W/m2
06:08 5.6 °C 2.3 °C 1006.3 hPa SW 3.2 km/h 3.2 km/h 79% 0 mm 0 W/m2
06:14 5.7 °C 2.3 °C 1006 hPa WSW 3.2 km/h 4.8 km/h 79% 0 mm 0 W/m2
06:20 5.7 °C 2.1 °C 1006 hPa West 3.2 km/h 3.2 km/h 78% 0 mm 0 W/m2
06:26 5.8 °C 2.2 °C 1006 hPa SW 3.2 km/h 9.7 km/h 78% 0 mm 0 W/m2
06:32 5.9 °C 2.3 °C 1006.3 hPa West 3.2 km/h 3.2 km/h 78% 0 mm 0 W/m2
06:38 5.9 °C 2.3 °C 1006.7 hPa WSW 3.2 km/h 3.2 km/h 78% 0 mm 0 W/m2
06:44 5.9 °C 2.3 °C 1006.7 hPa SW 1.6 km/h 4.8 km/h 78% 0 mm 0 W/m2
06:50 5.9 °C 2.3 °C 1006.7 hPa SW 3.2 km/h 3.2 km/h 78% 0 mm 0 W/m2
06:56 5.9 °C 2.3 °C 1006.7 hPa WNW 3.2 km/h 8 km/h 78% 0 mm 0 W/m2
07:02 5.8 °C 2.1 °C 1007 hPa WNW 3.2 km/h 8 km/h 77% 0 mm 5 W/m2
07:08 5.9 °C 2.2 °C 1007 hPa WNW 3.2 km/h 8 km/h 77% 0 mm 9 W/m2
07:14 5.8 °C 2.1 °C 1007 hPa WNW 3.2 km/h 3.2 km/h 77% 0 mm 12 W/m2
07:20 5.8 °C 2.1 °C 1007.3 hPa West 1.6 km/h 4.8 km/h 77% 0 mm 18 W/m2
07:26 5.8 °C 2.1 °C 1007.3 hPa NW 3.2 km/h 8 km/h 77% 0 mm 21 W/m2
07:32 5.9 °C 2.2 °C 1007.3 hPa WSW 3.2 km/h 4.8 km/h 77% 0 mm 26 W/m2
07:38 5.9 °C 2 °C 1007.7 hPa WSW 1.6 km/h 11.3 km/h 76% 0 mm 33 W/m2
07:44 6 °C 2.1 °C 1007.7 hPa West 3.2 km/h 6.4 km/h 76% 0 mm 46 W/m2
07:50 6.1 °C 2 °C 1007.7 hPa West 3.2 km/h 3.2 km/h 75% 0 mm 63 W/m2
07:56 6.4 °C 2.1 °C 1007.7 hPa WNW 4.8 km/h 4.8 km/h 74% 0 mm 74 W/m2
08:02 6.6 °C 2.1 °C 1007.7 hPa West 4.8 km/h 4.8 km/h 73% 0 mm 116 W/m2
08:08 6.7 °C 2.2 °C 1008 hPa West 4.8 km/h 4.8 km/h 73% 0 mm 148 W/m2
08:14 6.8 °C 2.1 °C 1008 hPa WSW 4.8 km/h 4.8 km/h 72% 0 mm 156 W/m2
08:20 6.8 °C 2.1 °C 1008 hPa West 3.2 km/h 12.9 km/h 72% 0 mm 146 W/m2
08:26 6.8 °C 1.9 °C 1008 hPa West 4.8 km/h 12.9 km/h 71% 0 mm 109 W/m2
08:32 6.7 °C 2 °C 1008 hPa NW 4.8 km/h 8 km/h 72% 0 mm 105 W/m2
08:38 6.6 °C 1.9 °C 1008 hPa WSW 4.8 km/h 9.7 km/h 72% 0 mm 91 W/m2
08:50 6.4 °C 1.8 °C 1008.4 hPa WSW 4.8 km/h 4.8 km/h 72% 0 mm 67 W/m2
08:56 6.4 °C 1.7 °C 1008.4 hPa West 3.2 km/h 4.8 km/h 72% 0 mm 58 W/m2
09:02 6.3 °C 1.6 °C 1008.4 hPa WNW 3.2 km/h 4.8 km/h 72% 0 mm 44 W/m2
09:08 6.6 °C 1.9 °C 1008.7 hPa WNW 3.2 km/h 6.4 km/h 72% 0 mm 366 W/m2
09:14 7.1 °C 1.9 °C 1008.7 hPa WNW 4.8 km/h 12.9 km/h 70% 0 mm 376 W/m2
09:20 7.6 °C 2 °C 1008.7 hPa WNW 4.8 km/h 4.8 km/h 68% 0 mm 390 W/m2
09:26 7.6 °C 2.1 °C 1008.7 hPa West 4.8 km/h 8 km/h 68% 0 mm 404 W/m2
09:32 7.7 °C 1.9 °C 1008.7 hPa WNW 4.8 km/h 12.9 km/h 67% 0 mm 420 W/m2
09:38 7.8 °C 1.8 °C 1008.7 hPa WNW 6.4 km/h 14.5 km/h 66% 0 mm 432 W/m2
09:44 8.1 °C 1.9 °C 1009 hPa WNW 6.4 km/h 6.4 km/h 65% 0 mm 446 W/m2
09:50 8.1 °C 1.9 °C 1009 hPa WSW 6.4 km/h 6.4 km/h 65% 0 mm 457 W/m2
09:56 8.4 °C 1.9 °C 1009 hPa WNW 6.4 km/h 9.7 km/h 64% 0 mm 471 W/m2
10:02 8.8 °C 1.9 °C 1009.4 hPa NW 6.4 km/h 8 km/h 62% 0 mm 485 W/m2
10:08 8.7 °C 1.8 °C 1009.4 hPa WNW 6.4 km/h 11.3 km/h 62% 0 mm 497 W/m2
10:14 8.7 °C 1.8 °C 1009.4 hPa West 8 km/h 11.3 km/h 62% 0 mm 506 W/m2
10:20 8.7 °C 1.8 °C 1009.4 hPa WNW 6.4 km/h 6.4 km/h 62% 0 mm 517 W/m2
10:26 8.9 °C 1.8 °C 1009.4 hPa West 6.4 km/h 8 km/h 61% 0 mm 529 W/m2
10:32 9.4 °C 2 °C 1009.4 hPa WNW 4.8 km/h 6.4 km/h 60% 0 mm 538 W/m2
10:38 9.5 °C 1.6 °C 1009.4 hPa WNW 4.8 km/h 6.4 km/h 58% 0 mm 548 W/m2
10:44 9.3 °C 1.5 °C 1009.4 hPa West 6.4 km/h 6.4 km/h 58% 0 mm 559 W/m2
10:50 9.1 °C 1.5 °C 1009.4 hPa NW 8 km/h 8 km/h 59% 0 mm 566 W/m2
10:56 9.1 °C 1.5 °C 1009.4 hPa West 9.7 km/h 16.1 km/h 59% 0 mm 575 W/m2
11:02 9.3 °C 1.4 °C 1009.7 hPa WNW 9.7 km/h 12.9 km/h 58% 0 mm 584 W/m2
11:08 9.2 °C 1.4 °C 1009.7 hPa WNW 8 km/h 12.9 km/h 58% 0 mm 589 W/m2
11:14 9.4 °C 1.6 °C 1009.7 hPa NW 6.4 km/h 11.3 km/h 58% 0 mm 596 W/m2
11:20 9.4 °C 1.3 °C 1009.7 hPa WNW 6.4 km/h 9.7 km/h 57% 0 mm 603 W/m2
11:26 9.2 °C 1.3 °C 1009.7 hPa West 8 km/h 11.3 km/h 58% 0 mm 606 W/m2
11:32 9.2 °C 1.4 °C 1009.7 hPa WNW 8 km/h 14.5 km/h 58% 0 mm 610 W/m2
11:38 9.5 °C 1.4 °C 1009.7 hPa WNW 6.4 km/h 14.5 km/h 57% 0 mm 613 W/m2
11:40 9.6 °C 1.5 °C 1009.7 hPa West 6.4 km/h 6.4 km/h 57% 0 mm 615 W/m2
11:46 9.4 °C 1.3 °C 1009.4 hPa WNW 6.4 km/h 9.7 km/h 57% 0 mm 619 W/m2
11:52 9.9 °C 1.6 °C 1009.7 hPa WNW 6.4 km/h 8 km/h 56% 0 mm 622 W/m2
11:58 9.8 °C 1.4 °C 1009.7 hPa WNW 6.4 km/h 9.7 km/h 56% 0 mm 624 W/m2
12:04 9.9 °C 1.3 °C 1009.4 hPa WNW 6.4 km/h 11.3 km/h 55% 0 mm 624 W/m2
12:10 9.8 °C 1.2 °C 1009.4 hPa WNW 8 km/h 8 km/h 55% 0 mm 626 W/m2
12:16 9.9 °C 1.3 °C 1009.4 hPa WNW 8 km/h 11.3 km/h 55% 0 mm 626 W/m2
12:22 9.8 °C 1.2 °C 1009.4 hPa WNW 8 km/h 9.7 km/h 55% 0 mm 626 W/m2
12:28 10 °C 1.4 °C 1009.4 hPa WNW 8 km/h 11.3 km/h 55% 0 mm 626 W/m2
12:34 10.1 °C 1.2 °C 1009.4 hPa WNW 8 km/h 16.1 km/h 54% 0 mm 626 W/m2
12:40 10.6 °C 1.4 °C 1009.4 hPa WNW 6.4 km/h 9.7 km/h 53% 0 mm 624 W/m2
12:46 10.4 °C 1.3 °C 1009.4 hPa NNE 6.4 km/h 12.9 km/h 53% 0 mm 622 W/m2
12:52 10.6 °C 1.1 °C 1009.4 hPa WNW 6.4 km/h 8 km/h 52% 0 mm 617 W/m2
12:58 10.8 °C 1.3 °C 1009.4 hPa NW 6.4 km/h 8 km/h 52% 0 mm 615 W/m2
13:04 10.8 °C 1.3 °C 1009.4 hPa WNW 6.4 km/h 8 km/h 52% 0 mm 612 W/m2
13:10 10.8 °C 1.1 °C 1009.4 hPa WNW 6.4 km/h 11.3 km/h 51% 0 mm 606 W/m2
13:16 10.9 °C 0.9 °C 1009.4 hPa WNW 6.4 km/h 16.1 km/h 50% 0 mm 601 W/m2
13:22 11.1 °C 1.3 °C 1009.4 hPa WNW 6.4 km/h 9.7 km/h 51% 0 mm 596 W/m2
13:28 11 °C 0.9 °C 1009.4 hPa NW 8 km/h 11.3 km/h 50% 0 mm 589 W/m2
13:36 11.3 °C 1.2 °C 1009.4 hPa WNW 6.4 km/h 11.3 km/h 50% 0 mm 580 W/m2
13:42 11.4 °C 1.1 °C 1009.4 hPa WNW 6.4 km/h 12.9 km/h 49% 0 mm 573 W/m2
13:48 11.4 °C 1.3 °C 1009.4 hPa WNW 8 km/h 12.9 km/h 50% 0 mm 568 W/m2
13:54 11.5 °C 1.2 °C 1009.4 hPa WNW 8 km/h 16.1 km/h 49% 0 mm 557 W/m2
14:00 11.7 °C 1 °C 1009.4 hPa WNW 8 km/h 9.7 km/h 48% 0 mm 548 W/m2
14:12 11.8 °C 1.4 °C 1009.4 hPa West 6.4 km/h 12.9 km/h 49% 0 mm 527 W/m2
14:18 11.6 °C 0.9 °C 1009.4 hPa West 9.7 km/h 14.5 km/h 48% 0 mm 517 W/m2
14:24 11.6 °C 0.9 °C 1009.4 hPa WNW 11.3 km/h 11.3 km/h 48% 0 mm 508 W/m2
14:30 11.6 °C 0.9 °C 1009.4 hPa West 9.7 km/h 9.7 km/h 48% 0 mm 496 W/m2
14:36 11.8 °C 1.1 °C 1009.4 hPa NNW 8 km/h 9.7 km/h 48% 0 mm 485 W/m2
14:42 11.7 °C 1.1 °C 1009.7 hPa NW 8 km/h 9.7 km/h 48% 0 mm 473 W/m2
14:48 11.4 °C 1.1 °C 1009.7 hPa WNW 8 km/h 14.5 km/h 49% 0 mm 459 W/m2
14:54 11.1 °C 0.8 °C 1009.7 hPa NNW 9.7 km/h 11.3 km/h 49% 0 mm 448 W/m2
15:00 11.1 °C 1 °C 1010 hPa WSW 9.7 km/h 9.7 km/h 50% 0 mm 434 W/m2
15:06 10.7 °C 0.7 °C 1010 hPa NW 9.7 km/h 20.9 km/h 50% 0 mm 420 W/m2
15:12 10.6 °C 0.9 °C 1010 hPa WNW 9.7 km/h 11.3 km/h 51% 0 mm 406 W/m2
15:18 10.6 °C 0.6 °C 1010.4 hPa NNW 9.7 km/h 11.3 km/h 50% 0 mm 392 W/m2
15:24 10.7 °C 0.4 °C 1010.4 hPa WSW 9.7 km/h 14.5 km/h 49% 0 mm 380 W/m2
15:30 10.7 °C 0.7 °C 1010.7 hPa WNW 9.7 km/h 12.9 km/h 50% 0 mm 364 W/m2
15:36 10.7 °C 0.4 °C 1010.7 hPa NW 9.7 km/h 12.9 km/h 49% 0 mm 348 W/m2
15:42 10.6 °C 0.6 °C 1010.7 hPa NNW 9.7 km/h 11.3 km/h 50% 0 mm 332 W/m2
15:48 10.7 °C 0.7 °C 1010.7 hPa WNW 9.7 km/h 11.3 km/h 50% 0 mm 316 W/m2
15:54 10.7 °C 0.7 °C 1010.7 hPa WNW 6.4 km/h 8 km/h 50% 0 mm 302 W/m2
16:00 10.6 °C 0.6 °C 1010.7 hPa NNW 6.4 km/h 8 km/h 50% 0 mm 287 W/m2
16:06 10.3 °C 0.6 °C 1010.7 hPa NW 6.4 km/h 9.7 km/h 51% 0 mm 269 W/m2
16:12 10.3 °C 0.6 °C 1010.7 hPa NW 6.4 km/h 8 km/h 51% 0 mm 251 W/m2
16:18 10.2 °C 0.4 °C 1010.7 hPa NW 8 km/h 11.3 km/h 51% 0 mm 234 W/m2
16:24 10 °C 0.6 °C 1010.7 hPa WNW 8 km/h 8 km/h 52% 0 mm 79 W/m2
16:30 9.9 °C 0.6 °C 1010.7 hPa West 9.7 km/h 12.9 km/h 52% 0 mm 25 W/m2
16:36 9.8 °C 0.7 °C 1011.1 hPa WNW 9.7 km/h 12.9 km/h 53% 0 mm 25 W/m2
16:42 9.7 °C 0.6 °C 1011.1 hPa NW 8 km/h 8 km/h 53% 0 mm 23 W/m2
16:48 9.6 °C 0.7 °C 1011.4 hPa West 6.4 km/h 11.3 km/h 54% 0 mm 21 W/m2
16:54 9.4 °C 0.8 °C 1011.4 hPa WNW 6.4 km/h 8 km/h 55% 0 mm 21 W/m2
17:00 9.3 °C 0.7 °C 1011.4 hPa WNW 6.4 km/h 6.4 km/h 55% 0 mm 19 W/m2
17:06 9.2 °C 0.8 °C 1011.7 hPa WNW 6.4 km/h 6.4 km/h 56% 0 mm 18 W/m2
17:12 9 °C 0.7 °C 1011.7 hPa West 6.4 km/h 6.4 km/h 56% 0 mm 16 W/m2
17:18 8.8 °C 0.8 °C 1011.7 hPa NW 6.4 km/h 6.4 km/h 57% 0 mm 14 W/m2
17:24 8.7 °C 0.6 °C 1012.1 hPa NW 8 km/h 8 km/h 57% 0 mm 12 W/m2
17:30 8.5 °C 0.7 °C 1012.1 hPa NW 8 km/h 8 km/h 58% 0 mm 9 W/m2
17:36 8.4 °C 0.6 °C 1012.1 hPa WNW 8 km/h 12.9 km/h 58% 0 mm 7 W/m2
17:42 8.2 °C 0.7 °C 1012.4 hPa NW 6.4 km/h 8 km/h 59% 0 mm 0 W/m2
17:48 8 °C 0.7 °C 1012.4 hPa WNW 4.8 km/h 8 km/h 60% 0 mm 0 W/m2
17:54 7.8 °C 0.5 °C 1012.4 hPa NW 3.2 km/h 8 km/h 60% 0 mm 0 W/m2
18:00 7.6 °C 0.5 °C 1012.4 hPa WNW 3.2 km/h 3.2 km/h 61% 0 mm 0 W/m2
18:06 7.4 °C 0.6 °C 1012.8 hPa West 1.6 km/h 4.8 km/h 62% 0 mm 0 W/m2
18:12 7.3 °C 0.5 °C 1013.1 hPa WNW 3.2 km/h 8 km/h 62% 0 mm 0 W/m2
18:18 7.2 °C 0.7 °C 1013.1 hPa WNW 3.2 km/h 8 km/h 63% 0 mm 0 W/m2
18:24 7.1 °C 0.5 °C 1013.1 hPa WNW 3.2 km/h 3.2 km/h 63% 0 mm 0 W/m2
18:30 6.8 °C 0.5 °C 1013.1 hPa WNW 1.6 km/h 1.6 km/h 64% 0 mm 0 W/m2
18:36 6.7 °C 0.3 °C 1013.4 hPa WNW 1.6 km/h 1.6 km/h 64% 0 mm 0 W/m2
18:42 6.5 °C 0.4 °C 1013.4 hPa WNW 1.6 km/h 1.6 km/h 65% 0 mm 0 W/m2
18:48 6.4 °C 0.3 °C 1013.4 hPa WNW 1.6 km/h 3.2 km/h 65% 0 mm 0 W/m2
18:54 6.3 °C 0.2 °C 1013.4 hPa NW 1.6 km/h 4.8 km/h 65% 0 mm 0 W/m2
19:00 6.3 °C 0.2 °C 1013.8 hPa NW 1.6 km/h 3.2 km/h 65% 0 mm 0 W/m2
19:06 6.2 °C 0.1 °C 1013.8 hPa WNW 1.6 km/h 4.8 km/h 65% 0 mm 0 W/m2
19:12 6.1 °C -0.1 °C 1013.8 hPa Calm   4.8 km/h 65% 0 mm 0 W/m2
19:18 6 °C 0.1 °C 1014.1 hPa WNW 1.6 km/h 8 km/h 66% 0 mm 0 W/m2
19:24 5.9 °C 0.1 °C 1014.1 hPa WNW 1.6 km/h 1.6 km/h 66% 0 mm 0 W/m2
19:30 5.8 °C -0.1 °C 1014.1 hPa Calm     66% 0 mm 0 W/m2
19:36 5.6 °C -0.1 °C 1014.1 hPa Calm   1.6 km/h 67% 0 mm 0 W/m2
19:42 5.6 °C -0.1 °C 1014.4 hPa WNW 1.6 km/h 1.6 km/h 67% 0 mm 0 W/m2
19:48 5.5 °C 0.1 °C 1014.4 hPa WNW 1.6 km/h 3.2 km/h 68% 0 mm 0 W/m2
19:54 5.6 °C -0.1 °C 1014.4 hPa WNW 1.6 km/h 3.2 km/h 67% 0 mm 0 W/m2
20:00 5.6 °C -0.1 °C 1014.4 hPa WNW 1.6 km/h 1.6 km/h 67% 0 mm 0 W/m2
20:06 5.6 °C 0.1 °C 1014.8 hPa West 1.6 km/h 1.6 km/h 68% 0 mm 0 W/m2
20:12 5.4 °C 0 °C 1014.8 hPa WSW 1.6 km/h 4.8 km/h 68% 0 mm 0 W/m2
20:18 5.3 °C -0.1 °C 1014.8 hPa WSW 1.6 km/h 4.8 km/h 68% 0 mm 0 W/m2
20:24 5.2 °C 0 °C 1014.8 hPa WSW 1.6 km/h 4.8 km/h 69% 0 mm 0 W/m2
20:30 5.2 °C -0.1 °C 1015.1 hPa Calm     69% 0 mm 0 W/m2
20:36 5.1 °C 0.1 °C 1015.1 hPa WSW 1.6 km/h 3.2 km/h 70% 0 mm 0 W/m2
20:42 5 °C 0 °C 1015.1 hPa NW 1.6 km/h 3.2 km/h 70% 0 mm 0 W/m2
20:48 4.9 °C -0.1 °C 1015.5 hPa WNW 3.2 km/h 4.8 km/h 70% 0 mm 0 W/m2
20:54 4.9 °C -0.1 °C 1015.5 hPa WNW 1.6 km/h 4.8 km/h 70% 0 mm 0 W/m2
21:00 4.9 °C 0.1 °C 1015.8 hPa NW 3.2 km/h 4.8 km/h 71% 0 mm 0 W/m2
21:06 4.9 °C 0.1 °C 1015.8 hPa West 3.2 km/h 4.8 km/h 71% 0 mm 0 W/m2
21:12 4.8 °C -0.1 °C 1015.8 hPa WNW 3.2 km/h 8 km/h 71% 0 mm 0 W/m2
21:18 4.8 °C -0.1 °C 1015.8 hPa West 3.2 km/h 8 km/h 71% 0 mm 0 W/m2
21:24 4.7 °C -0.1 °C 1015.8 hPa WNW 3.2 km/h 4.8 km/h 71% 0 mm 0 W/m2
21:30 4.6 °C 0 °C 1015.8 hPa NW 3.2 km/h 3.2 km/h 72% 0 mm 0 W/m2
21:36 4.4 °C -0.2 °C 1016.1 hPa NW 1.6 km/h 3.2 km/h 72% 0 mm 0 W/m2
21:42 4.3 °C -0.3 °C 1016.5 hPa North 3.2 km/h 4.8 km/h 72% 0 mm 0 W/m2
21:48 4 °C -0.4 °C 1016.1 hPa North 1.6 km/h 4.8 km/h 73% 0 mm 0 W/m2
21:54 3.8 °C -0.4 °C 1016.1 hPa Calm   1.6 km/h 74% 0 mm 0 W/m2
22:00 3.7 °C -0.5 °C 1016.5 hPa Calm     74% 0 mm 0 W/m2
22:06 3.6 °C -0.7 °C 1016.5 hPa Calm     74% 0 mm 0 W/m2
22:12 3.4 °C -0.6 °C 1016.5 hPa Calm     75% 0 mm 0 W/m2
22:18 3.3 °C -0.7 °C 1016.5 hPa Calm     75% 0 mm 0 W/m2
22:24 3.1 °C -0.7 °C 1016.5 hPa Calm     76% 0 mm 0 W/m2
22:30 3 °C -0.8 °C 1016.5 hPa Calm     76% 0 mm 0 W/m2
22:36 2.9 °C -0.7 °C 1016.5 hPa Calm     77% 0 mm 0 W/m2
22:42 2.8 °C -0.8 °C 1016.5 hPa Calm     77% 0 mm 0 W/m2
22:48 2.7 °C -0.7 °C 1016.8 hPa Calm     78% 0 mm 0 W/m2
22:54 2.8 °C -0.6 °C 1016.8 hPa Calm   1.6 km/h 78% 0 mm 0 W/m2
23:00 2.9 °C -0.7 °C 1016.8 hPa North 1.6 km/h 1.6 km/h 77% 0 mm 0 W/m2
23:06 2.9 °C -0.7 °C 1016.8 hPa WNW 1.6 km/h 3.2 km/h 77% 0 mm 0 W/m2
23:12 3 °C -0.7 °C 1016.8 hPa WNW 1.6 km/h 1.6 km/h 77% 0 mm 0 W/m2
23:18 3 °C -0.7 °C 1016.8 hPa WNW 1.6 km/h 3.2 km/h 77% 0 mm 0 W/m2
23:24 3 °C -0.7 °C 1016.8 hPa WNW 1.6 km/h 4.8 km/h 77% 0 mm 0 W/m2
23:30 2.9 °C -0.7 °C 1016.8 hPa Calm     77% 0 mm 0 W/m2
23:36 2.8 °C -0.8 °C 1016.8 hPa WNW 1.6 km/h 3.2 km/h 77% 0 mm 0 W/m2
23:42 2.7 °C -0.9 °C 1017.2 hPa WNW 1.6 km/h 1.6 km/h 77% 0 mm 0 W/m2
23:48 2.7 °C -0.8 °C 1017.2 hPa WNW 1.6 km/h 1.6 km/h 78% 0 mm 0 W/m2
23:54 2.6 °C -0.8 °C 1017.2 hPa WNW 1.6 km/h 1.6 km/h 78% 0 mm 0 W/m2
Country Meadow, Clay, NY, USA
Compliments of Weather Underground - 2 mb